Time;durP1;ratioP1;P1;durP2;ratioP2;P2;SDS_P1;SDS_P2;PMS_P1;PMS_P2;Temp;Humidity;BMP_temperature;BMP_pressure;BME280_temperature;BME280_humidity;BME280_pressure;Samples;Min_cycle;Max_cycle;Signal;HPM_P1;HPM_P2
2021/01/26 12:55:07;;;;;;;5.95;2.65;;;;;;;;;;5060009;28;20332;-77
2021/01/26 12:57:33;;;;;;;5.53;2.95;;;;;;;;;;5052532;27;20027;-75
2021/01/26 12:59:59;;;;;;;6.45;3.08;;;;;;;;;;5052211;28;20541;-75
2021/01/26 13:02:27;;;;;;;6.13;2.47;;;;;;;;;;5051055;28;20088;-75
2021/01/26 13:04:53;;;;;;;8.32;3.47;;;;;;;;;;5046886;28;20121;-75
2021/01/26 13:07:20;;;;;;;5.68;2.83;;;;;;;;;;5060480;27;20027;-76
2021/01/26 13:09:47;;;;;;;8.02;2.85;;;;;;;;;;5048538;27;20035;-75
2021/01/26 13:12:13;;;;;;;6.88;3.78;;;;;;;;;;5049870;27;20057;-75
2021/01/26 13:14:39;;;;;;;7.50;3.47;;;;;;;;;;5048628;28;20025;-75
2021/01/26 13:17:05;;;;;;;6.13;2.85;;;;;;;;;;5038683;28;20056;-75
2021/01/26 13:19:31;;;;;;;4.75;3.05;;;;;;;;;;5038798;28;20046;-75
2021/01/26 13:21:57;;;;;;;9.05;2.90;;;;;;;;;;5040588;28;20029;-74
2021/01/26 13:24:24;;;;;;;5.75;2.40;;;;;;;;;;5041975;28;20078;-75
2021/01/26 13:26:50;;;;;;;7.72;3.05;;;;;;;;;;5045417;27;20037;-76
2021/01/26 13:29:16;;;;;;;8.52;2.45;;;;;;;;;;5045237;27;20149;-76
2021/01/26 13:31:42;;;;;;;4.28;2.78;;;;;;;;;;5041355;28;20029;-74
2021/01/26 13:34:08;;;;;;;6.13;2.90;;;;;;;;;;5037854;28;20039;-75
2021/01/26 13:36:34;;;;;;;6.18;2.85;;;;;;;;;;5042058;27;20033;-76
2021/01/26 13:39:00;;;;;;;7.72;2.95;;;;;;;;;;5040802;28;20040;-75
2021/01/26 13:41:26;;;;;;;7.10;2.08;;;;;;;;;;5043373;28;20055;-77
2021/01/26 13:43:52;;;;;;;5.63;2.33;;;;;;;;;;5039766;28;20029;-76
2021/01/26 13:46:18;;;;;;;6.63;2.72;;;;;;;;;;5051363;27;20021;-77
2021/01/26 13:48:44;;;;;;;6.25;2.50;;;;;;;;;;5055396;27;20029;-77
2021/01/26 13:51:10;;;;;;;5.72;2.40;;;;;;;;;;5052808;28;20029;-77
2021/01/26 13:53:37;;;;;;;6.13;2.90;;;;;;;;;;5050393;27;20032;-78
2021/01/26 13:56:03;;;;;;;8.20;2.78;;;;;;;;;;5052143;28;20037;-77
2021/01/26 13:58:29;;;;;;;5.15;2.38;;;;;;;;;;5055005;28;20029;-76
2021/01/26 14:00:55;;;;;;;9.00;2.55;;;;;;;;;;5048705;28;20022;-76
2021/01/26 14:03:21;;;;;;;4.50;2.50;;;;;;;;;;5049694;27;20645;-76
2021/01/26 14:05:47;;;;;;;5.60;2.58;;;;;;;;;;5038063;27;20025;-76
2021/01/26 14:08:13;;;;;;;7.78;2.70;;;;;;;;;;5036380;28;20033;-76
2021/01/26 14:10:40;;;;;;;7.65;2.65;;;;;;;;;;5033425;28;20034;-76
2021/01/26 14:13:06;;;;;;;5.95;2.35;;;;;;;;;;5026832;28;20037;-76
2021/01/26 14:15:32;;;;;;;5.07;2.25;;;;;;;;;;5032457;28;20030;-76
2021/01/26 14:17:59;;;;;;;4.78;2.30;;;;;;;;;;5036354;28;20036;-75
2021/01/26 14:20:25;;;;;;;8.38;3.20;;;;;;;;;;5035510;28;20063;-75
2021/01/26 14:22:51;;;;;;;5.90;2.00;;;;;;;;;;5042181;27;20492;-78
2021/01/26 14:25:18;;;;;;;6.05;2.25;;;;;;;;;;5036570;28;20104;-77
2021/01/26 14:27:44;;;;;;;6.43;2.83;;;;;;;;;;5040345;28;20048;-78
2021/01/26 14:30:11;;;;;;;5.78;2.25;;;;;;;;;;5043840;28;20017;-76
2021/01/26 14:32:38;;;;;;;4.40;2.22;;;;;;;;;;5040521;27;20053;-77
2021/01/26 14:35:05;;;;;;;6.82;1.98;;;;;;;;;;5035381;28;20025;-76
2021/01/26 14:37:31;;;;;;;6.53;2.55;;;;;;;;;;5039037;28;20542;-77
2021/01/26 14:39:57;;;;;;;4.85;1.95;;;;;;;;;;5038847;28;20029;-77
2021/01/26 14:42:23;;;;;;;5.80;2.60;;;;;;;;;;5036976;28;20034;-77
2021/01/26 14:44:49;;;;;;;6.90;2.88;;;;;;;;;;5037037;28;20120;-77
2021/01/26 14:47:16;;;;;;;6.32;2.65;;;;;;;;;;5039806;28;20120;-76
2021/01/26 14:49:42;;;;;;;8.18;2.28;;;;;;;;;;5040409;28;20021;-77
2021/01/26 14:52:08;;;;;;;5.80;2.35;;;;;;;;;;5040099;28;20593;-77
2021/01/26 14:54:36;;;;;;;5.35;2.20;;;;;;;;;;5037501;28;20029;-77
2021/01/26 14:57:02;;;;;;;6.57;2.38;;;;;;;;;;5038403;28;20025;-77
2021/01/26 14:59:28;;;;;;;6.30;2.38;;;;;;;;;;5032310;28;20029;-77
2021/01/26 15:01:54;;;;;;;5.00;2.30;;;;;;;;;;5035905;28;20033;-77
2021/01/26 15:04:20;;;;;;;4.80;2.08;;;;;;;;;;5041725;27;20029;-77
2021/01/26 15:06:47;;;;;;;6.82;2.58;;;;;;;;;;5038431;28;20025;-79
2021/01/26 15:09:13;;;;;;;4.82;2.05;;;;;;;;;;5038444;28;20020;-77
2021/01/26 15:11:39;;;;;;;5.50;2.10;;;;;;;;;;5041450;28;20089;-77
2021/01/26 15:14:06;;;;;;;6.72;2.67;;;;;;;;;;5033115;28;20494;-77
2021/01/26 15:16:32;;;;;;;6.82;2.85;;;;;;;;;;5037357;28;20487;-77
2021/01/26 15:19:01;;;;;;;6.50;2.50;;;;;;;;;;5040799;28;20070;-77
2021/01/26 15:21:28;;;;;;;7.93;1.95;;;;;;;;;;5038435;28;20024;-77
2021/01/26 15:23:54;;;;;;;7.32;2.55;;;;;;;;;;5037270;28;20397;-77
2021/01/26 15:26:20;;;;;;;5.03;2.15;;;;;;;;;;5032732;28;20033;-77
2021/01/26 15:28:46;;;;;;;5.13;2.17;;;;;;;;;;5038735;27;20378;-77
2021/01/26 15:31:14;;;;;;;6.47;2.35;;;;;;;;;;5039395;27;20108;-77
2021/01/26 15:33:40;;;;;;;5.90;2.53;;;;;;;;;;5030358;28;20528;-76
2021/01/26 15:36:07;;;;;;;7.57;2.70;;;;;;;;;;5035264;28;20025;-76
2021/01/26 15:38:33;;;;;;;3.55;2.03;;;;;;;;;;5035239;28;20029;-77
2021/01/26 15:41:00;;;;;;;4.93;1.98;;;;;;;;;;5032633;27;20057;-77
2021/01/26 15:43:26;;;;;;;5.13;2.17;;;;;;;;;;5027772;27;20033;-77
2021/01/26 15:45:52;;;;;;;7.10;2.50;;;;;;;;;;5031046;27;20021;-78
2021/01/26 15:48:18;;;;;;;6.68;2.28;;;;;;;;;;5027484;28;20029;-76
2021/01/26 15:50:44;;;;;;;6.93;1.67;;;;;;;;;;5028728;28;20037;-77
2021/01/26 15:53:10;;;;;;;5.25;2.13;;;;;;;;;;5028152;28;20402;-76
2021/01/26 15:55:36;;;;;;;4.97;2.13;;;;;;;;;;5028642;28;20120;-76
2021/01/26 15:58:03;;;;;;;3.22;2.15;;;;;;;;;;5051546;27;20508;-77
2021/01/26 16:00:29;;;;;;;5.70;1.90;;;;;;;;;;5050240;28;20408;-76
2021/01/26 16:02:56;;;;;;;5.82;2.47;;;;;;;;;;5050396;28;20025;-77
2021/01/26 16:05:22;;;;;;;7.65;2.33;;;;;;;;;;5044703;28;20044;-77
2021/01/26 16:07:48;;;;;;;5.43;2.20;;;;;;;;;;5030140;28;20021;-77
2021/01/26 16:10:14;;;;;;;9.63;2.30;;;;;;;;;;5029945;28;20033;-76
2021/01/26 16:12:40;;;;;;;6.72;2.00;;;;;;;;;;5026026;28;20017;-76
2021/01/26 16:15:08;;;;;;;5.47;2.28;;;;;;;;;;5073244;27;20405;-77
2021/01/26 16:17:34;;;;;;;3.75;2.20;;;;;;;;;;5025067;28;20029;-76
2021/01/26 16:20:00;;;;;;;3.67;1.77;;;;;;;;;;5027134;28;20042;-78
2021/01/26 16:22:26;;;;;;;7.55;2.45;;;;;;;;;;5117500;27;20502;-79
2021/01/26 16:24:52;;;;;;;3.58;1.58;;;;;;;;;;5124707;27;20023;-76
2021/01/26 16:27:18;;;;;;;3.75;1.63;;;;;;;;;;5027486;28;20386;-76
2021/01/26 16:29:45;;;;;;;4.18;2.08;;;;;;;;;;5028227;28;20082;-76
2021/01/26 16:32:11;;;;;;;4.70;1.75;;;;;;;;;;5063718;27;20031;-77
2021/01/26 16:34:37;;;;;;;3.85;1.77;;;;;;;;;;5131471;27;20032;-77
2021/01/26 16:37:04;;;;;;;3.45;1.60;;;;;;;;;;5031458;27;20026;-77
2021/01/26 16:39:29;;;;;;;5.68;1.80;;;;;;;;;;5028234;28;20041;-77
2021/01/26 16:41:55;;;;;;;3.92;2.08;;;;;;;;;;5044332;28;20026;-77
2021/01/26 16:44:21;;;;;;;9.73;2.40;;;;;;;;;;5047912;28;20397;-77
2021/01/26 16:46:51;;;;;;;5.05;2.10;;;;;;;;;;5042577;28;20028;-77
2021/01/26 16:49:18;;;;;;;5.47;1.80;;;;;;;;;;5048409;28;20033;-77
2021/01/26 16:51:44;;;;;;;4.93;1.92;;;;;;;;;;5043690;28;20036;-77
2021/01/26 16:54:10;;;;;;;5.88;2.13;;;;;;;;;;5036703;28;20048;-77
2021/01/26 16:56:36;;;;;;;5.35;2.35;;;;;;;;;;5039961;28;20063;-76
2021/01/26 16:59:02;;;;;;;7.38;1.83;;;;;;;;;;5038926;28;20025;-76
2021/01/26 17:01:28;;;;;;;4.38;2.10;;;;;;;;;;5049606;28;20096;-76
2021/01/26 17:03:54;;;;;;;4.75;2.25;;;;;;;;;;5047643;28;20499;-76
2021/01/26 17:06:20;;;;;;;5.35;2.25;;;;;;;;;;5063541;28;20035;-75
2021/01/26 17:08:46;;;;;;;4.50;2.33;;;;;;;;;;5113726;28;20023;-76
2021/01/26 17:11:12;;;;;;;4.53;2.10;;;;;;;;;;5113278;28;20108;-76
2021/01/26 17:13:40;;;;;;;3.88;2.08;;;;;;;;;;5047105;28;20598;-74
2021/01/26 17:16:07;;;;;;;5.45;1.80;;;;;;;;;;5041529;28;20021;-75
2021/01/26 17:18:33;;;;;;;6.10;2.28;;;;;;;;;;5047924;28;20029;-75
2021/01/26 17:20:59;;;;;;;6.30;2.50;;;;;;;;;;5059255;28;20645;-76
2021/01/26 17:23:25;;;;;;;6.65;2.28;;;;;;;;;;5131213;28;20035;-76
2021/01/26 17:25:51;;;;;;;5.60;2.05;;;;;;;;;;5091560;28;20030;-76
2021/01/26 17:28:20;;;;;;;5.07;2.10;;;;;;;;;;5132032;28;20031;-77
2021/01/26 17:30:46;;;;;;;6.47;2.30;;;;;;;;;;5128642;27;20047;-75
2021/01/26 17:33:12;;;;;;;6.78;2.63;;;;;;;;;;5047115;28;20026;-75
2021/01/26 17:35:39;;;;;;;6.82;3.42;;;;;;;;;;5039816;28;20021;-75
2021/01/26 17:38:05;;;;;;;8.20;2.47;;;;;;;;;;5046753;28;20036;-76
2021/01/26 17:40:31;;;;;;;5.72;2.85;;;;;;;;;;5048966;28;20056;-75
2021/01/26 17:42:57;;;;;;;9.07;2.85;;;;;;;;;;5129821;27;20023;-75
2021/01/26 17:45:24;;;;;;;10.43;4.40;;;;;;;;;;5106146;27;20382;-75
2021/01/26 17:47:50;;;;;;;14.73;4.95;;;;;;;;;;5051250;27;20033;-76
2021/01/26 17:50:17;;;;;;;12.05;4.85;;;;;;;;;;5050886;28;20506;-75
2021/01/26 17:52:43;;;;;;;15.52;5.45;;;;;;;;;;5120445;27;20031;-75
2021/01/26 17:55:10;;;;;;;6.32;3.22;;;;;;;;;;5116911;27;20104;-76
2021/01/26 17:57:36;;;;;;;8.38;2.92;;;;;;;;;;5114209;27;20019;-76
2021/01/26 18:00:05;;;;;;;5.07;2.58;;;;;;;;;;5135107;27;20019;-76
2021/01/26 18:02:31;;;;;;;5.28;3.40;;;;;;;;;;5070292;27;20113;-76
2021/01/26 18:04:57;;;;;;;4.43;3.15;;;;;;;;;;5048860;28;20146;-76
2021/01/26 18:07:24;;;;;;;6.30;3.40;;;;;;;;;;5040009;27;20037;-76
2021/01/26 18:09:50;;;;;;;7.25;2.72;;;;;;;;;;5030742;28;20034;-76
2021/01/26 18:12:16;;;;;;;5.20;2.70;;;;;;;;;;5099255;27;20045;-76
2021/01/26 18:14:42;;;;;;;5.18;2.35;;;;;;;;;;5134540;27;20031;-76
2021/01/26 18:17:08;;;;;;;7.90;3.10;;;;;;;;;;5089965;27;20025;-76
2021/01/26 18:19:36;;;;;;;6.38;2.88;;;;;;;;;;5133813;27;20106;-76
2021/01/26 18:22:02;;;;;;;9.43;3.30;;;;;;;;;;5085813;27;20101;-76
2021/01/26 18:24:28;;;;;;;6.30;3.53;;;;;;;;;;5049915;28;20025;-76
2021/01/26 18:26:54;;;;;;;6.38;3.17;;;;;;;;;;5086223;27;20023;-76
2021/01/26 18:29:23;;;;;;;9.32;3.72;;;;;;;;;;5133759;27;20058;-76
2021/01/26 18:31:49;;;;;;;3.97;2.80;;;;;;;;;;5095384;27;20029;-76
2021/01/26 18:34:15;;;;;;;8.50;3.83;;;;;;;;;;5050148;28;20037;-78
2021/01/26 18:36:41;;;;;;;8.00;3.40;;;;;;;;;;5077690;27;20028;-76
2021/01/26 18:39:08;;;;;;;6.90;3.65;;;;;;;;;;5134709;27;20031;-77
2021/01/26 18:41:35;;;;;;;9.35;3.67;;;;;;;;;;5134114;27;20026;-77
2021/01/26 18:44:01;;;;;;;8.15;3.85;;;;;;;;;;5134564;27;20031;-77
2021/01/26 18:46:27;;;;;;;7.57;4.43;;;;;;;;;;5075692;27;20030;-76
2021/01/26 18:48:53;;;;;;;10.82;3.67;;;;;;;;;;5067016;28;20037;-77
2021/01/26 18:51:19;;;;;;;7.95;4.10;;;;;;;;;;5088671;27;20019;-77
